createdAt,value
2024-02-10T00:00:28.807Z,95.05
2024-02-10T00:02:59.957Z,94.88
2024-02-10T00:05:36.916Z,95.33
2024-02-10T00:08:04.642Z,95.41
2024-02-10T00:10:32.188Z,95.10
2024-02-10T00:13:01.651Z,95.65
2024-02-10T00:15:29.458Z,96.26
2024-02-10T00:17:57.415Z,96.09
2024-02-10T00:20:27.640Z,95.62
2024-02-10T00:22:55.644Z,96.47
2024-02-10T00:25:26.257Z,95.93
2024-02-10T00:27:59.958Z,96.57
2024-02-10T00:30:31.201Z,96.21
2024-02-10T00:33:03.318Z,96.68
2024-02-10T00:35:40.482Z,96.77
2024-02-10T00:38:07.717Z,96.15
2024-02-10T00:40:35.264Z,96.63
2024-02-10T00:43:05.908Z,97.11
2024-02-10T00:45:33.458Z,96.80
2024-02-10T00:48:01.853Z,96.83
2024-02-10T00:50:29.287Z,96.46
2024-02-10T00:52:56.676Z,96.27
2024-02-10T00:55:27.174Z,97.12
2024-02-10T00:57:54.668Z,96.86
2024-02-10T01:00:23.526Z,96.32
2024-02-10T01:02:52.382Z,96.69
2024-02-10T01:05:20.149Z,96.55
2024-02-10T01:07:49.296Z,96.54
2024-02-10T01:10:17.320Z,96.75
2024-02-10T01:12:45.049Z,96.92
2024-02-10T01:15:14.787Z,96.57
2024-02-10T01:17:48.208Z,96.95
2024-02-10T01:20:18.661Z,96.57
2024-02-10T01:22:46.841Z,97.15
2024-02-10T01:25:14.567Z,96.87
2024-02-10T01:27:45.070Z,97.17
2024-02-10T01:30:14.410Z,96.64
2024-02-10T01:32:44.040Z,97.40
2024-02-10T01:35:12.325Z,96.83
2024-02-10T01:37:42.579Z,96.79
2024-02-10T01:40:12.791Z,97.22
2024-02-10T01:42:43.071Z,97.16
2024-02-10T01:45:15.297Z,96.65
2024-02-10T01:47:47.199Z,97.69
2024-02-10T01:50:16.020Z,97.24
2024-02-10T01:52:49.724Z,97.67
2024-02-10T01:55:24.566Z,97.48
2024-02-10T01:58:04.427Z,97.26
2024-02-10T02:03:47.749Z,96.97
2024-02-10T02:15:45.338Z,98.15
2024-02-10T02:21:37.133Z,96.74
2024-02-10T02:24:19.129Z,97.53
2024-02-10T02:58:45.276Z,100.00
2024-02-10T03:03:54.495Z,100.00
2024-02-10T03:06:22.409Z,100.00
2024-02-10T03:08:49.837Z,100.00
2024-02-10T03:11:20.914Z,100.00
2024-02-10T03:13:49.170Z,100.00
2024-02-10T03:16:23.956Z,100.00
2024-02-10T03:18:51.366Z,100.00
2024-02-10T03:21:19.385Z,100.00
2024-02-10T03:23:46.904Z,100.00
2024-02-10T03:26:14.946Z,100.00
2024-02-10T03:28:42.518Z,100.00
2024-02-10T03:31:11.188Z,100.00
2024-02-10T03:33:38.661Z,100.00
2024-02-10T03:36:06.589Z,100.00
2024-02-10T03:38:33.950Z,100.00
2024-02-10T03:41:01.470Z,100.00
2024-02-10T03:43:29.146Z,100.00
2024-02-10T03:45:56.516Z,100.00
2024-02-10T03:48:33.805Z,100.00
2024-02-10T03:51:01.291Z,100.00
2024-02-10T03:53:28.872Z,100.00
2024-02-10T03:55:58.264Z,100.00
2024-02-10T03:58:27.184Z,100.00
2024-02-10T04:00:55.321Z,100.00
2024-02-10T04:08:12.312Z,100.00
2024-02-10T04:13:34.338Z,100.00
2024-02-10T04:16:04.124Z,100.00
2024-02-10T04:21:18.078Z,100.00
2024-02-10T04:23:53.737Z,100.00
2024-02-10T04:26:31.636Z,100.00
2024-02-10T04:34:33.215Z,100.00
2024-02-10T04:37:01.611Z,100.00
2024-02-10T04:39:30.811Z,100.00
2024-02-10T04:41:59.503Z,100.00
2024-02-10T04:44:32.817Z,100.00
2024-02-10T04:49:45.301Z,100.00
2024-02-10T05:00:30.850Z,100.00
2024-02-10T05:05:46.901Z,100.00
2024-02-10T05:08:15.012Z,100.00
2024-02-10T05:16:12.640Z,100.00
2024-02-10T05:27:04.300Z,100.00
2024-02-10T05:29:46.562Z,100.00
2024-02-10T05:32:16.862Z,100.00
2024-02-10T05:34:47.815Z,100.00
2024-02-10T05:37:20.963Z,100.00
2024-02-10T05:45:14.854Z,100.00
2024-02-10T06:03:58.141Z,96.50
2024-02-10T06:06:29.313Z,96.04
2024-02-10T06:09:03.093Z,96.55
2024-02-10T06:14:20.993Z,98.07
2024-02-10T06:16:56.178Z,98.05
2024-02-10T06:19:26.667Z,97.59
2024-02-10T06:21:54.392Z,98.37
2024-02-10T06:24:31.452Z,98.45
2024-02-10T06:29:40.057Z,98.95
2024-02-10T06:32:07.674Z,98.29
2024-02-10T06:34:36.844Z,98.35
2024-02-10T06:37:09.397Z,98.08
2024-02-10T06:39:40.147Z,97.42
2024-02-10T06:42:10.860Z,96.51
2024-02-10T06:44:44.392Z,96.54
2024-02-10T06:47:16.719Z,95.09
2024-02-10T06:49:49.599Z,95.11
2024-02-10T06:52:17.573Z,95.03
2024-02-10T06:54:46.780Z,93.82
2024-02-10T06:57:27.238Z,94.21
2024-02-10T06:59:58.381Z,93.38
2024-02-10T07:02:31.330Z,93.16
2024-02-10T07:04:59.964Z,93.22
2024-02-10T07:07:28.292Z,92.94
2024-02-10T07:10:00.970Z,93.27
2024-02-10T07:12:35.098Z,93.29
2024-02-10T07:15:02.981Z,92.83
2024-02-10T07:17:37.371Z,92.48
2024-02-10T07:20:06.047Z,92.05
2024-02-10T07:22:35.990Z,91.72
2024-02-10T07:25:15.351Z,92.49
2024-02-10T07:27:46.588Z,92.75
2024-02-10T07:30:15.855Z,91.84
2024-02-10T07:32:50.339Z,91.92
2024-02-10T07:35:20.061Z,91.85
2024-02-10T07:37:50.421Z,90.98
2024-02-10T07:40:19.461Z,90.97
2024-02-10T07:42:47.914Z,90.41
2024-02-10T07:45:19.176Z,91.55
2024-02-10T07:47:48.437Z,91.30
2024-02-10T07:50:15.906Z,90.67
2024-02-10T07:52:46.764Z,90.83
2024-02-10T07:55:40.634Z,91.45
2024-02-10T07:58:11.296Z,92.03
2024-02-10T08:00:43.236Z,91.36
2024-02-10T08:03:14.633Z,92.56
2024-02-10T08:05:43.945Z,92.17
2024-02-10T08:08:12.112Z,92.06
2024-02-10T08:10:40.120Z,92.36
2024-02-10T08:13:07.935Z,91.59
2024-02-10T08:15:35.611Z,91.79
2024-02-10T08:18:07.300Z,92.20
2024-02-10T08:20:36.036Z,91.43
2024-02-10T08:23:04.130Z,91.01
2024-02-10T08:25:33.052Z,90.63
2024-02-10T08:28:02.594Z,89.66
2024-02-10T08:30:30.742Z,89.29
2024-02-10T08:33:03.160Z,88.90
2024-02-10T08:35:32.356Z,88.32
2024-02-10T08:37:59.947Z,88.94
2024-02-10T08:40:27.284Z,87.29
2024-02-10T08:42:55.561Z,87.26
2024-02-10T08:45:23.124Z,86.93
2024-02-10T08:47:51.139Z,87.44
2024-02-10T08:50:19.934Z,87.27
2024-02-10T08:52:53.077Z,87.39
2024-02-10T08:55:21.657Z,88.00
2024-02-10T08:57:52.563Z,87.71
2024-02-10T09:00:23.341Z,87.32
2024-02-10T09:02:52.384Z,88.17
2024-02-10T09:05:20.046Z,86.66
2024-02-10T09:43:42.133Z,84.07
2024-02-10T09:46:13.616Z,84.17
2024-02-10T09:48:55.041Z,83.66
2024-02-10T09:51:30.951Z,82.85
2024-02-10T09:54:01.598Z,82.90
2024-02-10T09:56:36.528Z,83.01
2024-02-10T09:59:08.673Z,83.08
2024-02-10T10:01:39.306Z,82.76
2024-02-10T10:04:13.744Z,82.50
2024-02-10T10:06:48.922Z,82.01
2024-02-10T10:09:20.185Z,82.70
2024-02-10T10:11:52.327Z,82.31
2024-02-10T10:14:22.347Z,83.07
2024-02-10T10:17:02.040Z,81.66
2024-02-10T10:19:32.068Z,81.67
2024-02-10T10:22:04.628Z,81.38
2024-02-10T10:24:59.984Z,81.28
2024-02-10T10:27:27.656Z,80.98
2024-02-10T10:29:58.856Z,81.26
2024-02-10T10:32:33.011Z,81.43
2024-02-10T10:35:02.952Z,80.43
2024-02-10T10:37:32.773Z,80.57
2024-02-10T10:40:13.086Z,80.14
2024-02-10T10:42:44.124Z,80.08
2024-02-10T10:45:16.941Z,80.10
2024-02-10T10:47:47.264Z,80.07
2024-02-10T10:50:17.895Z,80.01
2024-02-10T10:52:49.136Z,79.98
2024-02-10T10:55:19.625Z,79.66
2024-02-10T10:57:51.591Z,80.12
2024-02-10T11:00:22.502Z,80.06
2024-02-10T11:03:00.751Z,79.77
2024-02-10T11:05:28.417Z,79.72
2024-02-10T11:08:03.309Z,79.65
2024-02-10T11:31:00.943Z,79.52
2024-02-10T11:36:32.334Z,78.92
2024-02-10T11:39:01.206Z,78.86
2024-02-10T11:41:33.483Z,78.68
2024-02-10T11:44:14.517Z,78.87
2024-02-10T11:46:50.117Z,78.49
2024-02-10T11:49:27.669Z,78.81
2024-02-10T11:52:05.377Z,78.37
2024-02-10T11:54:53.547Z,78.42
2024-02-10T11:57:25.106Z,78.13
2024-02-10T11:59:57.645Z,78.71
2024-02-10T12:02:34.024Z,78.74
2024-02-10T12:05:06.197Z,78.97
2024-02-10T12:07:48.448Z,78.42
2024-02-10T12:10:21.716Z,78.14
2024-02-10T12:13:06.109Z,77.65
2024-02-10T13:05:02.689Z,69.18
2024-02-10T13:20:52.143Z,69.42
2024-02-10T13:23:20.957Z,69.05
2024-02-10T13:25:53.421Z,69.87
2024-02-10T13:28:26.174Z,70.92
2024-02-10T13:30:54.635Z,71.81
2024-02-10T13:33:25.346Z,72.94
2024-02-10T13:35:56.268Z,73.91
2024-02-10T13:38:45.275Z,75.42
2024-02-10T13:41:31.176Z,75.77
2024-02-10T13:44:17.271Z,77.14
2024-02-10T13:47:10.006Z,77.77
2024-02-10T13:50:00.866Z,78.58
2024-02-10T13:52:54.455Z,78.84
2024-02-10T13:55:55.545Z,78.94
2024-02-10T14:01:54.916Z,78.38
2024-02-10T14:04:41.375Z,78.99
2024-02-10T14:07:36.218Z,79.92
2024-02-10T14:10:12.754Z,79.41
2024-02-10T14:12:51.821Z,80.53
2024-02-10T14:15:28.801Z,81.88
2024-02-10T14:18:02.611Z,82.49
2024-02-10T14:20:39.325Z,82.84
2024-02-10T14:23:13.604Z,82.67
2024-02-10T14:25:48.185Z,83.61
2024-02-10T14:31:17.848Z,84.13
2024-02-10T14:34:03.196Z,84.83
2024-02-10T14:36:39.261Z,85.33
2024-02-10T14:39:10.857Z,85.98
2024-02-10T14:41:53.095Z,86.74
2024-02-10T14:47:58.629Z,87.50
2024-02-10T14:50:30.682Z,87.42
2024-02-10T14:58:40.773Z,89.33
2024-02-10T15:07:00.342Z,90.48
2024-02-10T15:12:28.747Z,89.86
2024-02-10T15:15:06.281Z,89.48
2024-02-10T15:18:04.278Z,90.17
2024-02-10T15:20:51.076Z,89.65
2024-02-10T15:23:19.517Z,89.35
2024-02-10T15:25:49.509Z,88.94
2024-02-10T15:28:36.106Z,89.95
2024-02-10T15:31:29.876Z,90.31
2024-02-10T15:34:07.841Z,90.55
2024-02-10T15:37:00.764Z,90.61
2024-02-10T15:39:38.666Z,89.95
2024-02-10T15:42:33.222Z,90.54
2024-02-10T15:45:38.618Z,91.19
2024-02-10T15:48:18.846Z,90.98
2024-02-10T15:50:47.379Z,91.42
2024-02-10T15:53:54.678Z,90.79
2024-02-10T15:56:29.501Z,91.50
2024-02-10T15:59:08.041Z,91.42
2024-02-10T16:01:44.416Z,91.78
2024-02-10T16:04:15.276Z,91.57
2024-02-10T16:06:48.403Z,90.91
2024-02-10T16:09:18.791Z,91.54
2024-02-10T16:11:52.304Z,91.22
2024-02-10T16:14:29.438Z,91.65
2024-02-10T16:17:02.398Z,90.82
2024-02-10T16:19:30.974Z,90.95
2024-02-10T16:22:00.884Z,91.02
2024-02-10T16:24:31.164Z,91.26
2024-02-10T16:27:02.082Z,90.83
2024-02-10T16:29:29.516Z,91.04
2024-02-10T16:31:59.943Z,91.65
2024-02-10T16:34:30.160Z,91.41
2024-02-10T16:37:00.062Z,91.21
2024-02-10T16:39:27.415Z,91.65
2024-02-10T16:41:58.866Z,92.12
2024-02-10T16:44:29.252Z,91.92
2024-02-10T16:47:01.159Z,92.04
2024-02-10T16:49:52.000Z,92.20
2024-02-10T16:52:25.297Z,91.56
2024-02-10T16:54:56.799Z,92.12
2024-02-10T16:57:49.185Z,91.64
2024-02-10T17:00:28.312Z,91.87
2024-02-10T17:03:02.655Z,92.31
2024-02-10T17:05:34.937Z,91.73
2024-02-10T17:08:04.075Z,91.58
2024-02-10T17:10:36.466Z,91.66
2024-02-10T17:13:08.471Z,92.37
2024-02-10T17:15:44.392Z,91.93
2024-02-10T17:18:15.794Z,92.41
2024-02-10T17:21:02.373Z,92.59
2024-02-10T17:23:35.372Z,92.09
2024-02-10T17:26:08.532Z,92.00
2024-02-10T17:28:38.937Z,92.31
2024-02-10T17:31:15.652Z,92.29
2024-02-10T17:33:45.858Z,92.81
2024-02-10T17:36:23.456Z,93.48
2024-02-10T17:39:03.932Z,92.72
2024-02-10T17:41:33.603Z,92.95
2024-02-10T17:44:01.898Z,93.04
2024-02-10T17:46:31.693Z,92.59
2024-02-10T17:49:02.209Z,92.84
2024-02-10T17:51:30.679Z,92.78
2024-02-10T17:54:09.881Z,93.22
2024-02-10T17:56:38.381Z,93.05
2024-02-10T17:59:06.438Z,93.77
2024-02-10T18:01:34.338Z,93.41
2024-02-10T18:04:02.306Z,94.44
2024-02-10T18:06:32.323Z,94.37
2024-02-10T18:09:05.062Z,93.87
2024-02-10T18:15:06.561Z,93.77
2024-02-10T18:17:34.084Z,94.08
2024-02-10T18:20:03.283Z,93.23
2024-02-10T18:22:34.465Z,93.42
2024-02-10T18:25:05.356Z,93.32
2024-02-10T18:27:34.002Z,93.63
2024-02-10T18:30:04.904Z,94.00
2024-02-10T18:32:34.034Z,93.51
2024-02-10T18:35:03.151Z,94.10
2024-02-10T18:37:52.230Z,94.37
2024-02-10T18:40:20.490Z,93.90
2024-02-10T18:42:49.151Z,94.17
2024-02-10T18:45:45.791Z,94.53
2024-02-10T18:48:21.679Z,94.63
2024-02-10T18:50:55.004Z,94.41
2024-02-10T18:53:22.900Z,94.51
2024-02-10T18:55:51.743Z,95.23
2024-02-10T18:58:19.327Z,94.93
2024-02-10T19:00:50.712Z,95.18
2024-02-10T19:03:18.324Z,95.01
2024-02-10T19:05:48.230Z,94.96
2024-02-10T19:08:16.811Z,95.48
2024-02-10T19:10:45.453Z,94.63
2024-02-10T19:13:16.674Z,95.37
2024-02-10T19:15:44.307Z,95.06
2024-02-10T19:18:15.700Z,94.82
2024-02-10T19:20:48.561Z,94.19
2024-02-10T19:23:16.491Z,93.87
2024-02-10T19:25:53.249Z,94.01
2024-02-10T19:28:20.739Z,94.27
2024-02-10T19:30:50.937Z,94.47
2024-02-10T19:33:20.852Z,94.14
2024-02-10T19:35:57.845Z,94.36
2024-02-10T19:38:30.343Z,93.93
2024-02-10T19:41:04.247Z,94.23
2024-02-10T19:43:32.039Z,94.23
2024-02-10T19:46:01.786Z,94.69
2024-02-10T19:48:32.789Z,94.29
2024-02-10T19:51:07.705Z,94.63
2024-02-10T19:53:36.693Z,94.68
2024-02-10T19:56:05.852Z,93.72
2024-02-10T19:58:35.863Z,94.35
2024-02-10T20:01:04.566Z,94.60
2024-02-10T20:03:32.509Z,94.63
2024-02-10T20:06:06.511Z,94.41
2024-02-10T20:08:36.749Z,94.28
2024-02-10T20:11:05.401Z,94.57
2024-02-10T20:13:32.891Z,94.96
2024-02-10T20:18:49.254Z,95.69
2024-02-10T20:21:17.821Z,95.96
2024-02-10T20:23:45.978Z,96.40
2024-02-10T20:26:14.544Z,95.63
2024-02-10T20:28:43.477Z,95.49
2024-02-10T20:31:18.441Z,95.37
2024-02-10T20:33:53.846Z,95.49
2024-02-10T20:36:28.552Z,96.17
2024-02-10T20:38:58.029Z,95.78
2024-02-10T20:41:25.611Z,96.27
2024-02-10T20:43:52.930Z,96.26
2024-02-10T20:46:24.948Z,96.30
2024-02-10T20:48:54.087Z,95.96
2024-02-10T20:51:21.333Z,95.44
2024-02-10T20:53:48.882Z,95.97
2024-02-10T20:56:16.943Z,95.74
2024-02-10T20:58:45.450Z,96.07
2024-02-10T21:01:12.946Z,96.13
2024-02-10T21:03:40.672Z,95.15
2024-02-10T21:06:08.578Z,95.94
2024-02-10T21:08:39.006Z,95.62
2024-02-10T21:11:07.304Z,96.46
2024-02-10T21:13:35.048Z,95.37
2024-02-10T21:16:04.462Z,95.97
2024-02-10T21:18:34.427Z,95.76
2024-02-10T21:21:02.069Z,96.05
2024-02-10T21:23:32.044Z,95.57
2024-02-10T21:25:59.457Z,95.90
2024-02-10T21:28:28.628Z,96.39
2024-02-10T21:31:06.316Z,96.35
2024-02-10T21:33:34.847Z,95.59
2024-02-10T21:36:03.757Z,95.89
2024-02-10T21:38:31.226Z,95.84
2024-02-10T21:40:58.685Z,96.18
2024-02-10T21:43:26.546Z,95.83
2024-02-10T21:45:56.223Z,95.69
2024-02-10T21:48:23.822Z,95.79
2024-02-10T21:50:51.149Z,96.49
2024-02-10T21:53:18.981Z,95.41
2024-02-10T21:55:46.983Z,95.63
2024-02-10T21:58:15.490Z,95.70
2024-02-10T22:00:42.916Z,95.60
2024-02-10T22:03:12.833Z,95.74
2024-02-10T22:05:42.502Z,96.19
2024-02-10T22:08:10.000Z,95.83
2024-02-10T22:10:38.508Z,95.77
2024-02-10T22:13:08.079Z,95.86
2024-02-10T22:15:43.975Z,95.98
2024-02-10T22:18:14.959Z,95.33
2024-02-10T22:20:43.349Z,95.38
